sensor_id;sensor_type;location;lat;lon;timestamp;P1;durP1;ratioP1;P2;durP2;ratioP2
71083;SDS011;58741;52.672;13.548;2022-09-09T00:01:54;1.98;;;1.13;;
71083;SDS011;58741;52.672;13.548;2022-09-09T00:04:43;1.63;;;1.20;;
71083;SDS011;58741;52.672;13.548;2022-09-09T00:10:00;1.95;;;1.17;;
71083;SDS011;58741;52.672;13.548;2022-09-09T00:12:53;1.58;;;0.98;;
71083;SDS011;58741;52.672;13.548;2022-09-09T00:15:38;1.17;;;1.00;;
71083;SDS011;58741;52.672;13.548;2022-09-09T00:18:21;1.70;;;1.10;;
71083;SDS011;58741;52.672;13.548;2022-09-09T00:21:08;1.23;;;1.10;;
71083;SDS011;58741;52.672;13.548;2022-09-09T00:23:43;1.45;;;1.10;;
71083;SDS011;58741;52.672;13.548;2022-09-09T00:26:16;0.68;;;0.65;;
71083;SDS011;58741;52.672;13.548;2022-09-09T00:28:52;0.93;;;0.80;;
71083;SDS011;58741;52.672;13.548;2022-09-09T00:31:37;1.85;;;1.33;;
71083;SDS011;58741;52.672;13.548;2022-09-09T00:34:12;1.60;;;0.95;;
71083;SDS011;58741;52.672;13.548;2022-09-09T00:36:38;1.30;;;0.95;;
71083;SDS011;58741;52.672;13.548;2022-09-09T00:39:05;1.88;;;1.20;;
71083;SDS011;58741;52.672;13.548;2022-09-09T00:44:20;2.42;;;1.58;;
71083;SDS011;58741;52.672;13.548;2022-09-09T00:47:12;1.02;;;0.90;;
71083;SDS011;58741;52.672;13.548;2022-09-09T00:52:44;1.20;;;1.02;;
71083;SDS011;58741;52.672;13.548;2022-09-09T00:55:47;0.93;;;0.80;;
71083;SDS011;58741;52.672;13.548;2022-09-09T00:58:32;1.35;;;1.05;;
71083;SDS011;58741;52.672;13.548;2022-09-09T01:01:05;2.90;;;1.38;;
71083;SDS011;58741;52.672;13.548;2022-09-09T01:03:56;2.25;;;1.13;;
71083;SDS011;58741;52.672;13.548;2022-09-09T01:06:31;1.33;;;1.15;;
71083;SDS011;58741;52.672;13.548;2022-09-09T01:20:03;1.05;;;0.95;;
71083;SDS011;58741;52.672;13.548;2022-09-09T01:28:30;2.25;;;1.30;;
71083;SDS011;58741;52.672;13.548;2022-09-09T01:30:56;1.55;;;1.10;;
71083;SDS011;58741;52.672;13.548;2022-09-09T01:33:23;1.95;;;1.33;;
71083;SDS011;58741;52.672;13.548;2022-09-09T01:38:20;2.72;;;1.35;;
71083;SDS011;58741;52.672;13.548;2022-09-09T01:40:47;5.72;;;1.40;;
71083;SDS011;58741;52.672;13.548;2022-09-09T01:43:14;2.85;;;1.27;;
71083;SDS011;58741;52.672;13.548;2022-09-09T01:45:39;2.10;;;1.00;;
71083;SDS011;58741;52.672;13.548;2022-09-09T01:48:06;1.83;;;1.20;;
71083;SDS011;58741;52.672;13.548;2022-09-09T01:50:32;1.45;;;0.98;;
71083;SDS011;58741;52.672;13.548;2022-09-09T01:52:58;2.70;;;1.58;;
71083;SDS011;58741;52.672;13.548;2022-09-09T01:55:37;1.48;;;1.23;;
71083;SDS011;58741;52.672;13.548;2022-09-09T02:01:06;2.15;;;1.15;;
71083;SDS011;58741;52.672;13.548;2022-09-09T02:03:40;3.80;;;2.10;;
71083;SDS011;58741;52.672;13.548;2022-09-09T02:06:19;1.90;;;1.38;;
71083;SDS011;58741;52.672;13.548;2022-09-09T02:08:50;4.13;;;1.65;;
71083;SDS011;58741;52.672;13.548;2022-09-09T02:11:21;3.08;;;1.40;;
71083;SDS011;58741;52.672;13.548;2022-09-09T02:13:50;2.75;;;1.75;;
71083;SDS011;58741;52.672;13.548;2022-09-09T02:16:19;1.65;;;1.50;;
71083;SDS011;58741;52.672;13.548;2022-09-09T02:19:09;1.67;;;1.38;;
71083;SDS011;58741;52.672;13.548;2022-09-09T02:21:41;1.65;;;0.82;;
71083;SDS011;58741;52.672;13.548;2022-09-09T02:24:09;3.25;;;1.67;;
71083;SDS011;58741;52.672;13.548;2022-09-09T02:26:37;1.90;;;1.40;;
71083;SDS011;58741;52.672;13.548;2022-09-09T02:29:08;0.90;;;0.90;;
71083;SDS011;58741;52.672;13.548;2022-09-09T02:31:43;1.23;;;1.08;;
71083;SDS011;58741;52.672;13.548;2022-09-09T02:34:11;1.70;;;1.58;;
71083;SDS011;58741;52.672;13.548;2022-09-09T02:36:38;2.08;;;1.45;;
71083;SDS011;58741;52.672;13.548;2022-09-09T02:39:07;2.17;;;1.58;;
71083;SDS011;58741;52.672;13.548;2022-09-09T02:41:34;3.25;;;1.50;;
71083;SDS011;58741;52.672;13.548;2022-09-09T02:44:04;3.33;;;1.42;;
71083;SDS011;58741;52.672;13.548;2022-09-09T02:52:02;3.17;;;1.55;;
71083;SDS011;58741;52.672;13.548;2022-09-09T02:54:32;4.10;;;1.75;;
71083;SDS011;58741;52.672;13.548;2022-09-09T02:57:34;2.97;;;1.75;;
71083;SDS011;58741;52.672;13.548;2022-09-09T02:59:56;2.15;;;1.42;;
71083;SDS011;58741;52.672;13.548;2022-09-09T03:02:23;1.70;;;1.58;;
71083;SDS011;58741;52.672;13.548;2022-09-09T03:04:49;2.70;;;1.27;;
71083;SDS011;58741;52.672;13.548;2022-09-09T03:07:16;1.80;;;1.40;;
71083;SDS011;58741;52.672;13.548;2022-09-09T03:09:43;1.45;;;1.15;;
71083;SDS011;58741;52.672;13.548;2022-09-09T03:12:09;1.92;;;1.50;;
71083;SDS011;58741;52.672;13.548;2022-09-09T03:14:36;2.20;;;1.48;;
71083;SDS011;58741;52.672;13.548;2022-09-09T03:17:03;2.90;;;1.65;;
71083;SDS011;58741;52.672;13.548;2022-09-09T03:19:29;1.65;;;1.08;;
71083;SDS011;58741;52.672;13.548;2022-09-09T03:21:55;1.35;;;1.17;;
71083;SDS011;58741;52.672;13.548;2022-09-09T03:24:20;1.42;;;1.02;;
71083;SDS011;58741;52.672;13.548;2022-09-09T03:26:47;1.45;;;1.20;;
71083;SDS011;58741;52.672;13.548;2022-09-09T03:29:13;2.55;;;1.33;;
71083;SDS011;58741;52.672;13.548;2022-09-09T03:31:39;1.17;;;1.08;;
71083;SDS011;58741;52.672;13.548;2022-09-09T03:34:05;3.83;;;1.83;;
71083;SDS011;58741;52.672;13.548;2022-09-09T03:36:31;1.10;;;1.00;;
71083;SDS011;58741;52.672;13.548;2022-09-09T03:38:57;1.35;;;1.15;;
71083;SDS011;58741;52.672;13.548;2022-09-09T03:41:23;3.22;;;1.40;;
71083;SDS011;58741;52.672;13.548;2022-09-09T03:43:49;2.05;;;1.20;;
71083;SDS011;58741;52.672;13.548;2022-09-09T03:46:16;2.30;;;1.50;;
71083;SDS011;58741;52.672;13.548;2022-09-09T03:48:42;2.20;;;1.15;;
71083;SDS011;58741;52.672;13.548;2022-09-09T03:51:08;2.85;;;1.35;;
71083;SDS011;58741;52.672;13.548;2022-09-09T03:53:33;2.65;;;1.40;;
71083;SDS011;58741;52.672;13.548;2022-09-09T03:55:59;1.33;;;0.93;;
71083;SDS011;58741;52.672;13.548;2022-09-09T03:58:25;2.05;;;1.23;;
71083;SDS011;58741;52.672;13.548;2022-09-09T04:00:54;1.48;;;1.25;;
71083;SDS011;58741;52.672;13.548;2022-09-09T04:03:24;0.82;;;0.80;;
71083;SDS011;58741;52.672;13.548;2022-09-09T04:05:51;2.20;;;1.60;;
71083;SDS011;58741;52.672;13.548;2022-09-09T04:08:18;1.33;;;1.08;;
71083;SDS011;58741;52.672;13.548;2022-09-09T04:10:50;1.85;;;1.05;;
71083;SDS011;58741;52.672;13.548;2022-09-09T04:13:16;1.95;;;1.20;;
71083;SDS011;58741;52.672;13.548;2022-09-09T04:15:43;1.67;;;1.40;;
71083;SDS011;58741;52.672;13.548;2022-09-09T04:18:10;1.65;;;1.10;;
71083;SDS011;58741;52.672;13.548;2022-09-09T04:20:36;1.60;;;1.00;;
71083;SDS011;58741;52.672;13.548;2022-09-09T04:23:02;1.98;;;1.25;;
71083;SDS011;58741;52.672;13.548;2022-09-09T04:25:28;1.30;;;1.15;;
71083;SDS011;58741;52.672;13.548;2022-09-09T04:27:57;0.82;;;0.70;;
71083;SDS011;58741;52.672;13.548;2022-09-09T04:30:23;1.23;;;0.93;;
71083;SDS011;58741;52.672;13.548;2022-09-09T04:32:49;1.98;;;1.45;;
71083;SDS011;58741;52.672;13.548;2022-09-09T04:35:14;1.27;;;1.00;;
71083;SDS011;58741;52.672;13.548;2022-09-09T04:37:40;1.90;;;1.40;;
71083;SDS011;58741;52.672;13.548;2022-09-09T04:40:06;1.92;;;1.20;;
71083;SDS011;58741;52.672;13.548;2022-09-09T04:42:35;1.02;;;0.93;;
71083;SDS011;58741;52.672;13.548;2022-09-09T04:45:01;1.80;;;1.30;;
71083;SDS011;58741;52.672;13.548;2022-09-09T04:47:26;1.75;;;1.23;;
71083;SDS011;58741;52.672;13.548;2022-09-09T04:49:52;1.75;;;1.13;;
71083;SDS011;58741;52.672;13.548;2022-09-09T04:52:19;2.13;;;1.40;;
71083;SDS011;58741;52.672;13.548;2022-09-09T04:54:45;2.55;;;1.80;;
71083;SDS011;58741;52.672;13.548;2022-09-09T04:57:10;2.58;;;1.60;;
71083;SDS011;58741;52.672;13.548;2022-09-09T04:59:36;2.70;;;1.58;;
71083;SDS011;58741;52.672;13.548;2022-09-09T05:02:02;3.33;;;1.73;;
71083;SDS011;58741;52.672;13.548;2022-09-09T05:04:28;1.70;;;1.23;;
71083;SDS011;58741;52.672;13.548;2022-09-09T05:06:53;1.88;;;1.08;;
71083;SDS011;58741;52.672;13.548;2022-09-09T05:09:19;2.38;;;1.33;;
71083;SDS011;58741;52.672;13.548;2022-09-09T05:11:44;2.05;;;1.40;;
71083;SDS011;58741;52.672;13.548;2022-09-09T05:14:10;1.60;;;1.10;;
71083;SDS011;58741;52.672;13.548;2022-09-09T05:16:37;1.90;;;1.30;;
71083;SDS011;58741;52.672;13.548;2022-09-09T05:19:02;1.63;;;1.20;;
71083;SDS011;58741;52.672;13.548;2022-09-09T05:21:28;2.67;;;1.08;;
71083;SDS011;58741;52.672;13.548;2022-09-09T05:23:55;1.58;;;1.05;;
71083;SDS011;58741;52.672;13.548;2022-09-09T05:26:21;1.73;;;1.20;;
71083;SDS011;58741;52.672;13.548;2022-09-09T05:28:47;0.60;;;0.50;;
71083;SDS011;58741;52.672;13.548;2022-09-09T05:31:14;1.58;;;0.90;;
71083;SDS011;58741;52.672;13.548;2022-09-09T05:33:42;0.68;;;0.50;;
71083;SDS011;58741;52.672;13.548;2022-09-09T05:36:11;1.63;;;0.98;;
71083;SDS011;58741;52.672;13.548;2022-09-09T05:38:38;1.35;;;0.80;;
71083;SDS011;58741;52.672;13.548;2022-09-09T05:41:05;0.68;;;0.60;;
71083;SDS011;58741;52.672;13.548;2022-09-09T05:43:32;0.85;;;0.77;;
71083;SDS011;58741;52.672;13.548;2022-09-09T05:45:58;0.73;;;0.63;;
71083;SDS011;58741;52.672;13.548;2022-09-09T05:48:29;0.80;;;0.70;;
71083;SDS011;58741;52.672;13.548;2022-09-09T05:50:56;0.55;;;0.47;;
71083;SDS011;58741;52.672;13.548;2022-09-09T05:53:23;0.50;;;0.50;;
71083;SDS011;58741;52.672;13.548;2022-09-09T05:55:49;0.52;;;0.47;;
71083;SDS011;58741;52.672;13.548;2022-09-09T05:58:15;0.47;;;0.47;;
71083;SDS011;58741;52.672;13.548;2022-09-09T06:00:42;0.65;;;0.63;;
71083;SDS011;58741;52.672;13.548;2022-09-09T06:03:10;1.50;;;0.85;;
71083;SDS011;58741;52.672;13.548;2022-09-09T06:05:36;1.67;;;0.60;;
71083;SDS011;58741;52.672;13.548;2022-09-09T06:08:02;0.60;;;0.60;;
71083;SDS011;58741;52.672;13.548;2022-09-09T06:10:28;0.40;;;0.40;;
71083;SDS011;58741;52.672;13.548;2022-09-09T06:12:53;1.52;;;0.60;;
71083;SDS011;58741;52.672;13.548;2022-09-09T06:15:19;0.75;;;0.60;;
71083;SDS011;58741;52.672;13.548;2022-09-09T06:17:44;1.58;;;0.90;;
71083;SDS011;58741;52.672;13.548;2022-09-09T06:20:10;1.98;;;1.08;;
71083;SDS011;58741;52.672;13.548;2022-09-09T06:22:36;1.10;;;0.93;;
71083;SDS011;58741;52.672;13.548;2022-09-09T06:25:03;1.52;;;1.08;;
71083;SDS011;58741;52.672;13.548;2022-09-09T06:27:29;2.25;;;1.10;;
71083;SDS011;58741;52.672;13.548;2022-09-09T06:29:55;1.17;;;0.90;;
71083;SDS011;58741;52.672;13.548;2022-09-09T06:32:21;1.75;;;1.15;;
71083;SDS011;58741;52.672;13.548;2022-09-09T06:34:46;1.50;;;1.17;;
71083;SDS011;58741;52.672;13.548;2022-09-09T06:37:14;1.13;;;0.88;;
71083;SDS011;58741;52.672;13.548;2022-09-09T06:39:39;1.17;;;0.82;;
71083;SDS011;58741;52.672;13.548;2022-09-09T06:42:05;1.42;;;1.20;;
71083;SDS011;58741;52.672;13.548;2022-09-09T06:44:33;1.60;;;1.30;;
71083;SDS011;58741;52.672;13.548;2022-09-09T06:46:58;1.02;;;0.73;;
71083;SDS011;58741;52.672;13.548;2022-09-09T06:49:24;1.50;;;0.98;;
71083;SDS011;58741;52.672;13.548;2022-09-09T06:51:50;2.10;;;1.08;;
71083;SDS011;58741;52.672;13.548;2022-09-09T06:54:17;1.55;;;0.93;;
71083;SDS011;58741;52.672;13.548;2022-09-09T06:56:43;3.25;;;1.02;;
71083;SDS011;58741;52.672;13.548;2022-09-09T06:59:10;0.75;;;0.70;;
71083;SDS011;58741;52.672;13.548;2022-09-09T07:01:41;0.80;;;0.75;;
71083;SDS011;58741;52.672;13.548;2022-09-09T07:04:08;2.58;;;1.63;;
71083;SDS011;58741;52.672;13.548;2022-09-09T07:06:43;1.27;;;0.90;;
71083;SDS011;58741;52.672;13.548;2022-09-09T07:09:12;1.20;;;1.10;;
71083;SDS011;58741;52.672;13.548;2022-09-09T07:14:13;1.20;;;0.93;;
71083;SDS011;58741;52.672;13.548;2022-09-09T07:16:40;1.25;;;0.90;;
71083;SDS011;58741;52.672;13.548;2022-09-09T07:19:09;1.55;;;1.20;;
71083;SDS011;58741;52.672;13.548;2022-09-09T07:21:36;0.90;;;0.80;;
71083;SDS011;58741;52.672;13.548;2022-09-09T07:24:02;1.17;;;0.90;;
71083;SDS011;58741;52.672;13.548;2022-09-09T07:26:28;1.00;;;0.80;;
71083;SDS011;58741;52.672;13.548;2022-09-09T07:28:55;1.20;;;0.88;;
71083;SDS011;58741;52.672;13.548;2022-09-09T07:31:29;1.13;;;0.75;;
71083;SDS011;58741;52.672;13.548;2022-09-09T07:33:56;1.08;;;0.98;;
71083;SDS011;58741;52.672;13.548;2022-09-09T07:36:23;0.70;;;0.70;;
71083;SDS011;58741;52.672;13.548;2022-09-09T07:38:53;1.48;;;0.90;;
71083;SDS011;58741;52.672;13.548;2022-09-09T07:41:25;1.50;;;0.88;;
71083;SDS011;58741;52.672;13.548;2022-09-09T07:43:52;1.73;;;0.65;;
71083;SDS011;58741;52.672;13.548;2022-09-09T07:46:22;1.02;;;0.80;;
71083;SDS011;58741;52.672;13.548;2022-09-09T07:48:50;0.85;;;0.60;;
71083;SDS011;58741;52.672;13.548;2022-09-09T07:51:21;0.70;;;0.50;;
71083;SDS011;58741;52.672;13.548;2022-09-09T07:53:51;1.08;;;0.57;;
71083;SDS011;58741;52.672;13.548;2022-09-09T07:56:19;0.38;;;0.30;;
71083;SDS011;58741;52.672;13.548;2022-09-09T07:58:48;0.50;;;0.30;;
71083;SDS011;58741;52.672;13.548;2022-09-09T08:01:15;0.70;;;0.60;;
71083;SDS011;58741;52.672;13.548;2022-09-09T08:03:44;0.73;;;0.57;;
71083;SDS011;58741;52.672;13.548;2022-09-09T08:06:10;0.77;;;0.57;;
71083;SDS011;58741;52.672;13.548;2022-09-09T08:08:37;0.43;;;0.40;;
71083;SDS011;58741;52.672;13.548;2022-09-09T08:11:05;1.38;;;0.63;;
71083;SDS011;58741;52.672;13.548;2022-09-09T08:13:39;3.83;;;0.52;;
71083;SDS011;58741;52.672;13.548;2022-09-09T08:16:06;1.05;;;0.68;;
71083;SDS011;58741;52.672;13.548;2022-09-09T08:18:36;0.57;;;0.57;;
71083;SDS011;58741;52.672;13.548;2022-09-09T08:21:10;0.95;;;0.73;;
71083;SDS011;58741;52.672;13.548;2022-09-09T08:23:40;0.50;;;0.47;;
71083;SDS011;58741;52.672;13.548;2022-09-09T08:26:11;1.10;;;0.60;;
71083;SDS011;58741;52.672;13.548;2022-09-09T08:28:41;0.60;;;0.60;;
71083;SDS011;58741;52.672;13.548;2022-09-09T08:31:08;2.00;;;0.75;;
71083;SDS011;58741;52.672;13.548;2022-09-09T08:33:36;1.05;;;0.70;;
71083;SDS011;58741;52.672;13.548;2022-09-09T08:36:03;0.40;;;0.40;;
71083;SDS011;58741;52.672;13.548;2022-09-09T08:38:30;1.05;;;0.40;;
71083;SDS011;58741;52.672;13.548;2022-09-09T08:40:59;0.40;;;0.40;;
71083;SDS011;58741;52.672;13.548;2022-09-09T08:43:35;1.27;;;0.35;;
71083;SDS011;58741;52.672;13.548;2022-09-09T08:46:03;0.77;;;0.57;;
71083;SDS011;58741;52.672;13.548;2022-09-09T08:51:40;0.60;;;0.40;;
71083;SDS011;58741;52.672;13.548;2022-09-09T08:54:07;2.25;;;0.57;;
71083;SDS011;58741;52.672;13.548;2022-09-09T08:56:35;0.40;;;0.40;;
71083;SDS011;58741;52.672;13.548;2022-09-09T08:59:01;0.82;;;0.50;;
71083;SDS011;58741;52.672;13.548;2022-09-09T09:01:32;2.72;;;0.43;;
71083;SDS011;58741;52.672;13.548;2022-09-09T09:12:29;1.30;;;0.65;;
71083;SDS011;58741;52.672;13.548;2022-09-09T09:15:00;1.20;;;0.70;;
71083;SDS011;58741;52.672;13.548;2022-09-09T09:17:27;1.30;;;0.55;;
71083;SDS011;58741;52.672;13.548;2022-09-09T09:19:56;0.43;;;0.43;;
71083;SDS011;58741;52.672;13.548;2022-09-09T09:22:30;0.77;;;0.50;;
71083;SDS011;58741;52.672;13.548;2022-09-09T09:25:11;0.77;;;0.65;;
71083;SDS011;58741;52.672;13.548;2022-09-09T09:27:58;0.55;;;0.45;;
71083;SDS011;58741;52.672;13.548;2022-09-09T09:30:39;0.80;;;0.50;;
71083;SDS011;58741;52.672;13.548;2022-09-09T09:36:11;1.98;;;0.63;;
71083;SDS011;58741;52.672;13.548;2022-09-09T09:38:40;1.38;;;0.50;;
71083;SDS011;58741;52.672;13.548;2022-09-09T09:41:28;2.92;;;0.52;;
71083;SDS011;58741;52.672;13.548;2022-09-09T09:44:02;0.85;;;0.75;;
71083;SDS011;58741;52.672;13.548;2022-09-09T09:46:29;0.40;;;0.40;;
71083;SDS011;58741;52.672;13.548;2022-09-09T09:48:59;0.40;;;0.40;;
71083;SDS011;58741;52.672;13.548;2022-09-09T09:51:30;0.60;;;0.60;;
71083;SDS011;58741;52.672;13.548;2022-09-09T09:54:06;0.35;;;0.35;;
71083;SDS011;58741;52.672;13.548;2022-09-09T09:56:53;0.38;;;0.38;;
71083;SDS011;58741;52.672;13.548;2022-09-09T10:02:06;0.70;;;0.70;;
71083;SDS011;58741;52.672;13.548;2022-09-09T10:04:40;0.68;;;0.47;;
71083;SDS011;58741;52.672;13.548;2022-09-09T10:07:12;1.67;;;0.60;;
71083;SDS011;58741;52.672;13.548;2022-09-09T10:09:41;1.17;;;0.50;;
71083;SDS011;58741;52.672;13.548;2022-09-09T10:17:58;0.55;;;0.35;;
71083;SDS011;58741;52.672;13.548;2022-09-09T10:20:53;2.88;;;0.50;;
71083;SDS011;58741;52.672;13.548;2022-09-09T10:23:41;3.97;;;0.60;;
71083;SDS011;58741;52.672;13.548;2022-09-09T10:37:35;0.50;;;0.40;;
71083;SDS011;58741;52.672;13.548;2022-09-09T10:42:46;0.43;;;0.40;;
71083;SDS011;58741;52.672;13.548;2022-09-09T10:45:19;0.50;;;0.30;;
71083;SDS011;58741;52.672;13.548;2022-09-09T10:47:55;0.90;;;0.38;;
71083;SDS011;58741;52.672;13.548;2022-09-09T10:50:55;0.40;;;0.40;;
71083;SDS011;58741;52.672;13.548;2022-09-09T10:53:40;0.55;;;0.40;;
71083;SDS011;58741;52.672;13.548;2022-09-09T10:56:28;0.63;;;0.40;;
71083;SDS011;58741;52.672;13.548;2022-09-09T10:59:00;0.43;;;0.30;;
71083;SDS011;58741;52.672;13.548;2022-09-09T11:01:34;0.63;;;0.60;;
71083;SDS011;58741;52.672;13.548;2022-09-09T11:04:21;0.75;;;0.38;;
71083;SDS011;58741;52.672;13.548;2022-09-09T11:06:51;0.55;;;0.43;;
71083;SDS011;58741;52.672;13.548;2022-09-09T11:09:21;0.90;;;0.40;;
71083;SDS011;58741;52.672;13.548;2022-09-09T11:14:22;0.70;;;0.63;;
71083;SDS011;58741;52.672;13.548;2022-09-09T11:19:24;0.22;;;0.22;;
71083;SDS011;58741;52.672;13.548;2022-09-09T11:27:37;0.40;;;0.40;;
71083;SDS011;58741;52.672;13.548;2022-09-09T11:39:21;0.30;;;0.30;;
71083;SDS011;58741;52.672;13.548;2022-09-09T11:42:12;0.28;;;0.25;;
71083;SDS011;58741;52.672;13.548;2022-09-09T11:44:43;0.20;;;0.20;;
71083;SDS011;58741;52.672;13.548;2022-09-09T11:47:16;0.50;;;0.40;;
71083;SDS011;58741;52.672;13.548;2022-09-09T11:50:40;0.73;;;0.30;;
71083;SDS011;58741;52.672;13.548;2022-09-09T11:52:41;0.30;;;0.30;;
71083;SDS011;58741;52.672;13.548;2022-09-09T11:55:20;0.43;;;0.40;;
71083;SDS011;58741;52.672;13.548;2022-09-09T11:57:58;0.30;;;0.30;;
71083;SDS011;58741;52.672;13.548;2022-09-09T12:00:58;0.30;;;0.30;;
71083;SDS011;58741;52.672;13.548;2022-09-09T12:06:10;0.43;;;0.30;;
71083;SDS011;58741;52.672;13.548;2022-09-09T12:08:52;0.45;;;0.40;;
71083;SDS011;58741;52.672;13.548;2022-09-09T12:11:28;0.30;;;0.30;;
71083;SDS011;58741;52.672;13.548;2022-09-09T12:13:56;0.50;;;0.40;;
71083;SDS011;58741;52.672;13.548;2022-09-09T12:16:35;0.30;;;0.30;;
71083;SDS011;58741;52.672;13.548;2022-09-09T12:19:04;1.00;;;0.50;;
71083;SDS011;58741;52.672;13.548;2022-09-09T12:21:58;2.67;;;0.50;;
71083;SDS011;58741;52.672;13.548;2022-09-09T12:24:49;1.42;;;0.55;;
71083;SDS011;58741;52.672;13.548;2022-09-09T12:27:33;5.72;;;0.63;;
71083;SDS011;58741;52.672;13.548;2022-09-09T12:30:09;1.67;;;0.40;;
71083;SDS011;58741;52.672;13.548;2022-09-09T12:32:36;0.25;;;0.25;;
71083;SDS011;58741;52.672;13.548;2022-09-09T12:35:04;0.57;;;0.50;;
71083;SDS011;58741;52.672;13.548;2022-09-09T12:42:47;0.30;;;0.30;;
71083;SDS011;58741;52.672;13.548;2022-09-09T12:45:20;0.38;;;0.38;;
71083;SDS011;58741;52.672;13.548;2022-09-09T12:47:49;0.30;;;0.30;;
71083;SDS011;58741;52.672;13.548;2022-09-09T12:50:29;4.57;;;0.40;;
71083;SDS011;58741;52.672;13.548;2022-09-09T12:53:04;0.55;;;0.38;;
71083;SDS011;58741;52.672;13.548;2022-09-09T12:55:35;0.70;;;0.40;;
71083;SDS011;58741;52.672;13.548;2022-09-09T12:58:03;0.40;;;0.40;;
71083;SDS011;58741;52.672;13.548;2022-09-09T13:00:31;0.30;;;0.30;;
71083;SDS011;58741;52.672;13.548;2022-09-09T13:02:59;0.40;;;0.40;;
71083;SDS011;58741;52.672;13.548;2022-09-09T13:05:27;0.38;;;0.38;;
71083;SDS011;58741;52.672;13.548;2022-09-09T13:08:00;1.55;;;0.47;;
71083;SDS011;58741;52.672;13.548;2022-09-09T13:10:28;0.30;;;0.30;;
71083;SDS011;58741;52.672;13.548;2022-09-09T13:12:57;0.20;;;0.20;;
71083;SDS011;58741;52.672;13.548;2022-09-09T13:15:24;0.40;;;0.35;;
71083;SDS011;58741;52.672;13.548;2022-09-09T13:17:53;0.30;;;0.30;;
71083;SDS011;58741;52.672;13.548;2022-09-09T13:20:21;2.33;;;0.43;;
71083;SDS011;58741;52.672;13.548;2022-09-09T13:22:48;0.30;;;0.30;;
71083;SDS011;58741;52.672;13.548;2022-09-09T13:25:19;0.90;;;0.30;;
71083;SDS011;58741;52.672;13.548;2022-09-09T13:30:36;0.50;;;0.50;;
71083;SDS011;58741;52.672;13.548;2022-09-09T13:35:47;0.60;;;0.30;;
71083;SDS011;58741;52.672;13.548;2022-09-09T13:38:21;0.32;;;0.32;;
71083;SDS011;58741;52.672;13.548;2022-09-09T13:40:54;0.22;;;0.22;;
71083;SDS011;58741;52.672;13.548;2022-09-09T13:43:22;0.28;;;0.28;;
71083;SDS011;58741;52.672;13.548;2022-09-09T13:45:57;3.90;;;0.40;;
71083;SDS011;58741;52.672;13.548;2022-09-09T13:48:25;0.10;;;0.10;;
71083;SDS011;58741;52.672;13.548;2022-09-09T13:50:54;0.50;;;0.38;;
71083;SDS011;58741;52.672;13.548;2022-09-09T13:53:21;0.38;;;0.38;;
71083;SDS011;58741;52.672;13.548;2022-09-09T13:55:46;0.20;;;0.20;;
71083;SDS011;58741;52.672;13.548;2022-09-09T13:58:16;0.55;;;0.30;;
71083;SDS011;58741;52.672;13.548;2022-09-09T14:00:46;0.30;;;0.30;;
71083;SDS011;58741;52.672;13.548;2022-09-09T14:03:12;0.30;;;0.30;;
71083;SDS011;58741;52.672;13.548;2022-09-09T14:05:38;0.20;;;0.20;;
71083;SDS011;58741;52.672;13.548;2022-09-09T14:08:04;1.40;;;0.40;;
71083;SDS011;58741;52.672;13.548;2022-09-09T14:10:31;0.20;;;0.20;;
71083;SDS011;58741;52.672;13.548;2022-09-09T14:12:56;0.30;;;0.30;;
71083;SDS011;58741;52.672;13.548;2022-09-09T14:15:22;0.20;;;0.20;;
71083;SDS011;58741;52.672;13.548;2022-09-09T14:17:47;0.20;;;0.20;;
71083;SDS011;58741;52.672;13.548;2022-09-09T14:20:13;0.20;;;0.20;;
71083;SDS011;58741;52.672;13.548;2022-09-09T14:22:40;0.17;;;0.17;;
71083;SDS011;58741;52.672;13.548;2022-09-09T14:25:06;1.35;;;0.38;;
71083;SDS011;58741;52.672;13.548;2022-09-09T14:27:32;0.22;;;0.22;;
71083;SDS011;58741;52.672;13.548;2022-09-09T14:29:58;0.20;;;0.20;;
71083;SDS011;58741;52.672;13.548;2022-09-09T14:32:24;0.45;;;0.38;;
71083;SDS011;58741;52.672;13.548;2022-09-09T14:34:50;0.20;;;0.20;;
71083;SDS011;58741;52.672;13.548;2022-09-09T14:37:16;0.10;;;0.10;;
71083;SDS011;58741;52.672;13.548;2022-09-09T14:39:42;0.85;;;0.38;;
71083;SDS011;58741;52.672;13.548;2022-09-09T14:42:09;0.40;;;0.25;;
71083;SDS011;58741;52.672;13.548;2022-09-09T14:44:36;0.15;;;0.15;;
71083;SDS011;58741;52.672;13.548;2022-09-09T14:47:03;0.20;;;0.20;;
71083;SDS011;58741;52.672;13.548;2022-09-09T14:49:30;0.10;;;0.10;;
71083;SDS011;58741;52.672;13.548;2022-09-09T14:51:56;0.95;;;0.50;;
71083;SDS011;58741;52.672;13.548;2022-09-09T14:54:21;0.20;;;0.20;;
71083;SDS011;58741;52.672;13.548;2022-09-09T14:56:47;0.65;;;0.30;;
71083;SDS011;58741;52.672;13.548;2022-09-09T14:59:13;0.20;;;0.20;;
71083;SDS011;58741;52.672;13.548;2022-09-09T15:01:39;0.17;;;0.17;;
71083;SDS011;58741;52.672;13.548;2022-09-09T15:04:04;0.20;;;0.20;;
71083;SDS011;58741;52.672;13.548;2022-09-09T15:06:31;0.25;;;0.25;;
71083;SDS011;58741;52.672;13.548;2022-09-09T15:08:58;0.20;;;0.20;;
71083;SDS011;58741;52.672;13.548;2022-09-09T15:11:29;0.28;;;0.28;;
71083;SDS011;58741;52.672;13.548;2022-09-09T15:13:57;0.20;;;0.20;;
71083;SDS011;58741;52.672;13.548;2022-09-09T15:16:24;0.15;;;0.15;;
71083;SDS011;58741;52.672;13.548;2022-09-09T15:18:52;0.20;;;0.20;;
71083;SDS011;58741;52.672;13.548;2022-09-09T15:21:20;0.20;;;0.20;;
71083;SDS011;58741;52.672;13.548;2022-09-09T15:23:47;0.57;;;0.30;;
71083;SDS011;58741;52.672;13.548;2022-09-09T15:26:13;0.30;;;0.30;;
71083;SDS011;58741;52.672;13.548;2022-09-09T15:28:40;0.20;;;0.20;;
71083;SDS011;58741;52.672;13.548;2022-09-09T15:31:09;0.40;;;0.40;;
71083;SDS011;58741;52.672;13.548;2022-09-09T15:33:37;0.40;;;0.40;;
71083;SDS011;58741;52.672;13.548;2022-09-09T15:36:19;0.28;;;0.20;;
71083;SDS011;58741;52.672;13.548;2022-09-09T15:38:47;0.45;;;0.35;;
71083;SDS011;58741;52.672;13.548;2022-09-09T15:41:12;0.20;;;0.20;;
71083;SDS011;58741;52.672;13.548;2022-09-09T15:43:39;0.45;;;0.35;;
71083;SDS011;58741;52.672;13.548;2022-09-09T15:48:43;3.00;;;0.57;;
71083;SDS011;58741;52.672;13.548;2022-09-09T15:51:10;2.75;;;0.40;;
71083;SDS011;58741;52.672;13.548;2022-09-09T15:53:36;0.30;;;0.30;;
71083;SDS011;58741;52.672;13.548;2022-09-09T15:56:03;0.82;;;0.60;;
71083;SDS011;58741;52.672;13.548;2022-09-09T15:58:33;0.43;;;0.25;;
71083;SDS011;58741;52.672;13.548;2022-09-09T16:01:01;0.68;;;0.30;;
71083;SDS011;58741;52.672;13.548;2022-09-09T16:03:35;1.38;;;0.35;;
71083;SDS011;58741;52.672;13.548;2022-09-09T16:06:02;0.63;;;0.38;;
71083;SDS011;58741;52.672;13.548;2022-09-09T16:08:35;0.17;;;0.17;;
71083;SDS011;58741;52.672;13.548;2022-09-09T16:11:22;0.40;;;0.40;;
71083;SDS011;58741;52.672;13.548;2022-09-09T16:13:51;1.00;;;0.52;;
71083;SDS011;58741;52.672;13.548;2022-09-09T16:16:18;0.50;;;0.50;;
71083;SDS011;58741;52.672;13.548;2022-09-09T16:18:47;0.82;;;0.40;;
71083;SDS011;58741;52.672;13.548;2022-09-09T16:21:15;0.40;;;0.40;;
71083;SDS011;58741;52.672;13.548;2022-09-09T16:23:43;0.28;;;0.20;;
71083;SDS011;58741;52.672;13.548;2022-09-09T16:26:13;1.35;;;0.60;;
71083;SDS011;58741;52.672;13.548;2022-09-09T16:28:40;0.43;;;0.40;;
71083;SDS011;58741;52.672;13.548;2022-09-09T16:31:06;0.40;;;0.40;;
71083;SDS011;58741;52.672;13.548;2022-09-09T16:33:32;0.30;;;0.30;;
71083;SDS011;58741;52.672;13.548;2022-09-09T16:35:58;0.60;;;0.60;;
71083;SDS011;58741;52.672;13.548;2022-09-09T16:38:30;0.82;;;0.75;;
71083;SDS011;58741;52.672;13.548;2022-09-09T16:40:59;2.45;;;0.95;;
71083;SDS011;58741;52.672;13.548;2022-09-09T16:43:25;1.50;;;1.25;;